Time;durP1;ratioP1;P1;durP2;ratioP2;P2;SDS_P1;SDS_P2;PMS_P1;PMS_P2;Temp;Humidity;BMP_temperature;BMP_pressure;BME280_temperature;BME280_humidity;BME280_pressure;Samples;Min_cycle;Max_cycle;Signal;HPM_P1;HPM_P2
2021/03/01 00:01:27;;;;;;;12.65;7.05;;;4.20;99.90;;;;;;5041045;28;20665;-84
2021/03/01 00:03:54;;;;;;;13.73;7.40;;;4.10;99.90;;;;;;5039341;28;20226;-84
2021/03/01 00:06:20;;;;;;;11.02;7.90;;;3.90;99.90;;;;;;5039555;28;20226;-83
2021/03/01 00:08:47;;;;;;;15.18;7.57;;;3.80;99.90;;;;;;5040018;28;20208;-86
2021/03/01 00:11:13;;;;;;;13.30;7.93;;;3.90;99.90;;;;;;5039420;28;20211;-82
2021/03/01 00:13:40;;;;;;;12.27;7.53;;;4.10;99.90;;;;;;5040238;28;20227;-85
2021/03/01 00:16:08;;;;;;;13.65;7.93;;;4.10;99.90;;;;;;5044006;28;20297;-84
2021/03/01 00:18:34;;;;;;;19.73;7.28;;;4.00;99.90;;;;;;5050116;28;20213;-84
2021/03/01 00:21:01;;;;;;;15.38;8.15;;;3.80;99.90;;;;;;5060736;28;20210;-85
2021/03/01 00:23:28;;;;;;;18.20;8.90;;;3.80;99.90;;;;;;5042686;28;20207;-82
2021/03/01 00:25:54;;;;;;;15.80;7.50;;;3.90;99.90;;;;;;5047867;28;20210;-85
2021/03/01 00:28:20;;;;;;;14.68;7.90;;;3.60;99.90;;;;;;5041783;28;20207;-83
2021/03/01 00:30:47;;;;;;;13.30;7.50;;;3.70;99.90;;;;;;5043061;28;20222;-84
2021/03/01 00:33:14;;;;;;;12.90;8.20;;;3.80;99.90;;;;;;5040054;28;20623;-84
2021/03/01 00:35:40;;;;;;;15.45;8.48;;;3.60;99.90;;;;;;5038676;28;20294;-83
2021/03/01 00:38:10;;;;;;;11.88;7.22;;;3.50;99.90;;;;;;5038186;28;20307;-82
2021/03/01 00:40:36;;;;;;;10.50;6.80;;;3.60;99.90;;;;;;5040204;28;20234;-84
2021/03/01 00:43:03;;;;;;;13.35;8.40;;;3.70;99.90;;;;;;5038948;28;20235;-84
2021/03/01 00:45:29;;;;;;;13.10;7.25;;;3.70;99.90;;;;;;5047093;28;20249;-83
2021/03/01 00:47:56;;;;;;;15.30;8.32;;;3.60;99.90;;;;;;5051599;28;20224;-81
2021/03/01 00:50:23;;;;;;;13.60;8.98;;;3.80;99.90;;;;;;5049560;28;20196;-83
2021/03/01 00:52:50;;;;;;;13.20;7.50;;;3.70;99.90;;;;;;5051129;28;20203;-84
2021/03/01 00:55:16;;;;;;;11.30;7.22;;;3.70;99.90;;;;;;5042238;28;20211;-82
2021/03/01 00:57:43;;;;;;;13.65;8.23;;;3.70;99.90;;;;;;5041078;28;20235;-84
2021/03/01 01:00:14;;;;;;;12.25;7.20;;;3.60;99.90;;;;;;5038836;28;20207;-84
2021/03/01 01:02:41;;;;;;;14.02;8.45;;;3.60;99.90;;;;;;5037210;28;20191;-83
2021/03/01 01:05:08;;;;;;;14.77;8.20;;;3.60;99.90;;;;;;5035176;28;20237;-82
2021/03/01 01:07:36;;;;;;;13.85;8.50;;;3.30;99.90;;;;;;5036029;28;20242;-84
2021/03/01 01:10:06;;;;;;;13.45;7.55;;;3.40;99.90;;;;;;5036052;28;20211;-85
2021/03/01 01:12:32;;;;;;;12.82;8.07;;;3.20;99.90;;;;;;5038698;28;20553;-84
2021/03/01 01:14:59;;;;;;;17.70;9.15;;;3.30;99.90;;;;;;5039687;28;20390;-85
2021/03/01 01:17:25;;;;;;;11.52;7.10;;;3.20;99.90;;;;;;5035835;28;20662;-84
2021/03/01 01:19:51;;;;;;;13.23;7.82;;;3.60;99.90;;;;;;5047476;28;20574;-84
2021/03/01 01:22:18;;;;;;;14.90;7.22;;;3.40;99.90;;;;;;5038324;28;20716;-84
2021/03/01 01:24:45;;;;;;;13.98;7.53;;;3.40;99.90;;;;;;5036390;28;20234;-85
2021/03/01 01:27:12;;;;;;;13.63;8.20;;;3.20;99.90;;;;;;5037113;28;20255;-84
2021/03/01 01:29:38;;;;;;;12.55;7.57;;;3.30;99.90;;;;;;5036767;28;20536;-85
2021/03/01 01:32:05;;;;;;;14.35;8.10;;;3.50;99.90;;;;;;5036678;28;20203;-85
2021/03/01 01:34:32;;;;;;;14.50;7.43;;;3.20;99.90;;;;;;5036029;28;20318;-84
2021/03/01 01:36:58;;;;;;;15.05;8.30;;;3.20;99.90;;;;;;5035933;28;20277;-85
2021/03/01 01:39:25;;;;;;;13.48;8.10;;;3.40;99.90;;;;;;5032528;28;20211;-84
2021/03/01 01:41:52;;;;;;;13.00;8.23;;;3.40;99.90;;;;;;5040295;28;20230;-85
2021/03/01 01:44:18;;;;;;;15.00;8.65;;;3.10;99.90;;;;;;5037912;28;20198;-82
2021/03/01 01:46:45;;;;;;;13.27;7.53;;;3.30;99.90;;;;;;5040230;28;20265;-84
2021/03/01 01:49:11;;;;;;;13.75;8.23;;;3.10;99.90;;;;;;5041920;28;20202;-84
2021/03/01 01:51:38;;;;;;;13.00;8.05;;;3.10;99.90;;;;;;5038423;28;20215;-85
2021/03/01 01:54:05;;;;;;;12.52;6.88;;;3.20;99.90;;;;;;5035425;28;20211;-84
2021/03/01 01:56:31;;;;;;;15.13;8.35;;;3.20;99.90;;;;;;5038521;28;20226;-82
2021/03/01 01:58:58;;;;;;;13.10;7.32;;;3.30;99.90;;;;;;5040205;28;20203;-85
2021/03/01 02:01:25;;;;;;;13.50;8.52;;;3.20;99.90;;;;;;5040482;28;20704;-84
2021/03/01 02:03:58;;;;;;;14.52;8.00;;;3.10;99.90;;;;;;5038710;28;20207;-84
2021/03/01 02:06:35;;;;;;;14.02;7.65;;;3.30;99.90;;;;;;5038058;28;20310;-83
2021/03/01 02:09:16;;;;;;;12.70;8.15;;;3.00;99.90;;;;;;5036810;28;20556;-84
2021/03/01 02:11:54;;;;;;;13.77;7.72;;;3.20;99.90;;;;;;5018729;28;20219;-85
2021/03/01 02:14:33;;;;;;;14.50;8.73;;;3.20;99.90;;;;;;5038905;28;20254;-86
2021/03/01 02:16:59;;;;;;;13.27;6.80;;;3.20;99.90;;;;;;5038149;28;20313;-85
2021/03/01 02:19:27;;;;;;;14.38;7.65;;;3.10;99.90;;;;;;5036426;28;20246;-84
2021/03/01 02:21:54;;;;;;;13.35;7.95;;;3.00;99.90;;;;;;5037928;28;20203;-84
2021/03/01 02:24:25;;;;;;;13.93;8.35;;;3.00;99.90;;;;;;5039294;28;21616;-84
2021/03/01 02:26:55;;;;;;;15.82;8.27;;;3.10;99.90;;;;;;5040841;28;20234;-85
2021/03/01 02:29:23;;;;;;;16.00;9.23;;;3.20;99.90;;;;;;5060992;28;20229;-85
2021/03/01 02:31:52;;;;;;;14.70;7.53;;;3.00;99.90;;;;;;5052735;28;20290;-86
2021/03/01 02:34:20;;;;;;;15.93;8.07;;;3.00;99.90;;;;;;5043682;28;20290;-83
2021/03/01 02:36:51;;;;;;;16.55;9.45;;;3.00;99.90;;;;;;5052963;28;20223;-84
2021/03/01 02:39:21;;;;;;;15.25;8.10;;;3.00;99.90;;;;;;5050935;28;20211;-83
2021/03/01 02:41:55;;;;;;;14.25;8.60;;;2.70;99.90;;;;;;5041286;28;20219;-85
2021/03/01 02:44:22;;;;;;;13.85;8.63;;;2.90;99.90;;;;;;5041023;28;20234;-84
2021/03/01 02:46:50;;;;;;;12.95;7.25;;;3.00;99.90;;;;;;5021754;28;20275;-86
2021/03/01 02:49:17;;;;;;;11.93;7.50;;;2.60;99.90;;;;;;5044349;28;20203;-83
2021/03/01 02:51:48;;;;;;;13.68;8.15;;;2.90;99.90;;;;;;5052729;28;20195;-84
2021/03/01 02:54:17;;;;;;;14.13;7.18;;;2.70;99.90;;;;;;5051400;28;20222;-85
2021/03/01 02:56:47;;;;;;;12.32;7.53;;;2.80;99.90;;;;;;5049579;28;20261;-84
2021/03/01 02:59:14;;;;;;;14.23;7.97;;;2.80;99.90;;;;;;5054845;28;20191;-83
2021/03/01 03:01:41;;;;;;;13.82;8.02;;;2.80;99.90;;;;;;5054368;28;20191;-84
2021/03/01 03:04:09;;;;;;;13.43;8.00;;;2.60;99.90;;;;;;5044169;28;20267;-85
2021/03/01 03:06:37;;;;;;;15.60;8.30;;;2.90;99.90;;;;;;5050936;28;20266;-83
2021/03/01 03:09:07;;;;;;;15.85;8.10;;;2.70;99.90;;;;;;5043102;28;20296;-86
2021/03/01 03:11:34;;;;;;;13.43;7.93;;;2.80;99.90;;;;;;5043514;28;20210;-86
2021/03/01 03:14:04;;;;;;;14.80;7.60;;;2.70;99.90;;;;;;5044515;28;20219;-86
2021/03/01 03:16:32;;;;;;;13.68;7.47;;;3.10;99.90;;;;;;5048604;28;20317;-82
2021/03/01 03:19:00;;;;;;;16.90;7.88;;;3.00;99.90;;;;;;5052483;28;20203;-83
2021/03/01 03:21:27;;;;;;;15.23;8.18;;;2.90;99.90;;;;;;5055204;28;20208;-84
2021/03/01 03:23:54;;;;;;;15.50;7.95;;;2.70;99.90;;;;;;5047952;28;20203;-84
2021/03/01 03:26:21;;;;;;;11.85;7.53;;;2.90;99.90;;;;;;5042441;28;20223;-84
2021/03/01 03:28:47;;;;;;;15.45;8.00;;;2.80;99.90;;;;;;5042089;28;20207;-83
2021/03/01 03:31:15;;;;;;;14.80;7.95;;;2.80;99.90;;;;;;5042826;28;20913;-84
2021/03/01 03:33:43;;;;;;;12.50;6.97;;;2.50;99.90;;;;;;5041095;28;20282;-84
2021/03/01 03:36:10;;;;;;;12.55;7.63;;;2.60;99.90;;;;;;5040383;28;20204;-85
2021/03/01 03:38:42;;;;;;;14.07;8.90;;;2.70;99.90;;;;;;5042806;28;20219;-84
2021/03/01 03:41:12;;;;;;;15.05;8.65;;;2.70;99.90;;;;;;5041092;28;20749;-84
2021/03/01 03:43:41;;;;;;;13.38;7.57;;;2.60;99.90;;;;;;5044385;28;20245;-85
2021/03/01 03:46:10;;;;;;;14.68;7.60;;;2.60;99.90;;;;;;5052112;28;20741;-85
2021/03/01 03:48:38;;;;;;;14.57;7.50;;;2.40;99.90;;;;;;5044914;28;20336;-86
2021/03/01 03:51:09;;;;;;;13.82;7.72;;;2.50;99.90;;;;;;5043843;28;20217;-85
2021/03/01 03:53:44;;;;;;;14.40;7.30;;;2.60;99.90;;;;;;5045507;28;20242;-85
2021/03/01 03:56:12;;;;;;;13.07;7.35;;;2.60;99.90;;;;;;5044930;28;20223;-81
2021/03/01 03:58:44;;;;;;;13.70;7.70;;;2.60;99.90;;;;;;5046702;28;20225;-86
2021/03/01 04:01:13;;;;;;;17.52;8.35;;;2.60;99.90;;;;;;5047268;28;20180;-85
2021/03/01 04:03:43;;;;;;;12.90;7.45;;;2.50;99.90;;;;;;5039971;28;20286;-85
2021/03/01 04:06:14;;;;;;;13.52;8.13;;;2.50;99.90;;;;;;5039966;28;20243;-83
2021/03/01 04:08:41;;;;;;;13.23;7.53;;;2.30;99.90;;;;;;5040116;28;20279;-83
2021/03/01 04:11:09;;;;;;;17.25;9.02;;;2.40;99.90;;;;;;5039072;28;20346;-83
2021/03/01 04:13:36;;;;;;;12.93;7.78;;;2.30;99.90;;;;;;5040758;28;20220;-83
2021/03/01 04:16:03;;;;;;;16.35;8.00;;;2.20;99.90;;;;;;5038790;28;20227;-83
2021/03/01 04:18:35;;;;;;;16.83;8.02;;;2.30;99.90;;;;;;5040325;28;20242;-82
2021/03/01 04:21:06;;;;;;;13.60;8.13;;;2.50;99.90;;;;;;5038841;28;20226;-84
2021/03/01 04:23:34;;;;;;;12.05;7.10;;;2.10;99.90;;;;;;5038991;28;20243;-83
2021/03/01 04:26:02;;;;;;;12.98;7.50;;;2.40;99.90;;;;;;5043330;28;20211;-84
2021/03/01 04:28:30;;;;;;;12.75;7.72;;;2.10;99.90;;;;;;5057686;28;20576;-84
2021/03/01 04:31:01;;;;;;;14.07;7.20;;;2.30;99.90;;;;;;5050931;28;20231;-83
2021/03/01 04:33:29;;;;;;;16.02;8.50;;;2.30;99.90;;;;;;5041060;28;20278;-83
2021/03/01 04:35:56;;;;;;;15.18;7.93;;;2.30;99.90;;;;;;5042061;28;20227;-84
2021/03/01 04:38:24;;;;;;;14.77;8.70;;;2.20;99.90;;;;;;5038386;28;20211;-85
2021/03/01 04:40:51;;;;;;;14.55;8.40;;;2.20;99.90;;;;;;5038598;28;20215;-85
2021/03/01 04:43:21;;;;;;;12.98;7.40;;;2.40;99.90;;;;;;5039729;28;20700;-84
2021/03/01 04:45:50;;;;;;;14.90;8.38;;;2.30;99.90;;;;;;5039327;28;20200;-85
2021/03/01 04:48:17;;;;;;;13.80;9.00;;;2.30;99.90;;;;;;5039606;28;20234;-84
2021/03/01 04:50:46;;;;;;;16.30;7.63;;;2.20;99.90;;;;;;5040829;28;20200;-85
2021/03/01 04:53:14;;;;;;;17.83;8.38;;;2.20;99.90;;;;;;5045424;28;20256;-84
2021/03/01 04:55:42;;;;;;;13.93;7.65;;;2.30;99.90;;;;;;5029245;28;20601;-84
2021/03/01 04:58:10;;;;;;;12.75;6.70;;;2.30;99.90;;;;;;5037564;28;20826;-85
2021/03/01 05:00:37;;;;;;;16.65;9.05;;;2.30;99.90;;;;;;5037611;28;20200;-83
2021/03/01 05:03:06;;;;;;;14.65;8.05;;;2.30;99.90;;;;;;5036009;28;20211;-85
2021/03/01 05:05:33;;;;;;;14.48;7.97;;;2.20;99.90;;;;;;5035609;28;20666;-84
2021/03/01 05:08:02;;;;;;;14.65;8.07;;;2.40;99.90;;;;;;5035672;28;20227;-84
2021/03/01 05:10:30;;;;;;;15.10;7.18;;;2.40;99.90;;;;;;5036621;28;20195;-86
2021/03/01 05:12:58;;;;;;;19.15;9.95;;;2.20;99.90;;;;;;5016433;28;20353;-86
2021/03/01 05:15:24;;;;;;;14.30;8.05;;;2.20;99.90;;;;;;5016546;28;20235;-87
2021/03/01 05:17:51;;;;;;;12.88;7.63;;;2.00;99.90;;;;;;5035053;28;20285;-84
2021/03/01 05:20:18;;;;;;;15.85;8.07;;;2.40;99.90;;;;;;5036186;28;20828;-84
2021/03/01 05:22:44;;;;;;;15.65;8.10;;;2.20;99.90;;;;;;5035993;28;20242;-85
2021/03/01 05:25:11;;;;;;;13.75;7.90;;;2.30;99.90;;;;;;5044684;28;20218;-84
2021/03/01 05:27:38;;;;;;;12.10;7.57;;;2.30;99.90;;;;;;5035743;28;20222;-85
2021/03/01 05:30:09;;;;;;;13.13;7.70;;;2.40;99.90;;;;;;5036408;28;20637;-85
2021/03/01 05:32:36;;;;;;;15.27;8.32;;;2.20;99.90;;;;;;5035539;28;20249;-86
2021/03/01 05:35:03;;;;;;;16.25;8.93;;;2.10;99.90;;;;;;5036512;28;20306;-84
2021/03/01 05:37:29;;;;;;;12.00;7.25;;;2.30;99.90;;;;;;5036467;28;20223;-85
2021/03/01 05:39:55;;;;;;;13.38;8.30;;;2.30;99.90;;;;;;5037684;28;20245;-85
2021/03/01 05:42:23;;;;;;;12.20;7.55;;;2.30;99.90;;;;;;5033771;28;20267;-86
2021/03/01 05:44:50;;;;;;;18.40;8.90;;;2.10;99.90;;;;;;5041568;28;20207;-85
2021/03/01 05:47:18;;;;;;;14.48;8.60;;;2.40;99.90;;;;;;5049510;28;20218;-83
2021/03/01 05:49:46;;;;;;;19.02;7.63;;;2.00;99.90;;;;;;5053995;28;20233;-83
2021/03/01 05:52:16;;;;;;;15.77;9.02;;;2.00;99.90;;;;;;5046469;28;20203;-84
2021/03/01 05:54:44;;;;;;;15.27;7.75;;;2.10;99.90;;;;;;5037753;28;20211;-86
2021/03/01 05:57:11;;;;;;;14.85;7.80;;;2.30;99.90;;;;;;5035788;28;20726;-85
2021/03/01 05:59:38;;;;;;;14.50;8.15;;;2.00;99.90;;;;;;5037971;28;20211;-85
2021/03/01 06:02:05;;;;;;;22.35;8.98;;;2.10;99.90;;;;;;5038283;28;20246;-85
2021/03/01 06:04:33;;;;;;;16.58;8.82;;;2.00;99.90;;;;;;5051656;28;20251;-83
2021/03/01 06:06:59;;;;;;;16.02;9.57;;;2.30;99.90;;;;;;5048838;28;20215;-86
2021/03/01 06:09:25;;;;;;;19.55;9.05;;;2.10;99.90;;;;;;5043513;28;20248;-85
2021/03/01 06:11:55;;;;;;;12.55;8.15;;;2.10;99.90;;;;;;5048717;28;20416;-84
2021/03/01 06:14:21;;;;;;;13.85;8.35;;;1.90;99.90;;;;;;5052588;28;20230;-86
2021/03/01 06:17:09;;;;;;;16.85;7.70;;;2.00;99.90;;;;;;5035927;28;20317;-86
2021/03/01 06:20:00;;;;;;;14.60;8.43;;;2.10;99.90;;;;;;5035136;28;20257;-85
2021/03/01 06:22:40;;;;;;;15.35;8.85;;;2.20;99.90;;;;;;5036383;28;20191;-84
2021/03/01 06:25:11;;;;;;;18.50;8.55;;;2.00;99.90;;;;;;5044464;28;20203;-84
2021/03/01 06:27:49;;;;;;;12.57;8.18;;;2.10;99.90;;;;;;5047953;28;20230;-82
2021/03/01 06:30:17;;;;;;;15.00;8.52;;;2.10;99.90;;;;;;5040473;28;20210;-85
2021/03/01 06:32:44;;;;;;;31.63;9.27;;;2.00;99.90;;;;;;5035662;28;20214;-85
2021/03/01 06:35:28;;;;;;;16.67;9.00;;;2.10;99.90;;;;;;5016334;28;20260;-85
2021/03/01 06:38:24;;;;;;;17.65;9.43;;;2.10;99.90;;;;;;5025889;28;20222;-83
2021/03/01 06:41:08;;;;;;;20.05;10.93;;;2.30;99.90;;;;;;5051314;28;20241;-85
2021/03/01 06:43:35;;;;;;;16.52;9.00;;;2.00;99.90;;;;;;5050384;28;20215;-85
2021/03/01 06:46:12;;;;;;;15.95;8.70;;;2.20;99.90;;;;;;5042957;28;20682;-84
2021/03/01 06:48:39;;;;;;;15.07;8.40;;;2.20;99.90;;;;;;5041267;28;20214;-85
2021/03/01 06:51:08;;;;;;;18.13;8.65;;;2.20;99.90;;;;;;5052091;28;20215;-84
2021/03/01 06:53:36;;;;;;;18.05;9.20;;;2.20;99.90;;;;;;5039582;28;20210;-86
2021/03/01 06:56:04;;;;;;;14.57;8.57;;;2.20;99.90;;;;;;5039219;28;20245;-86
2021/03/01 06:58:35;;;;;;;18.60;9.55;;;2.20;99.90;;;;;;5039795;28;20230;-85
2021/03/01 07:01:06;;;;;;;17.17;9.57;;;2.10;99.90;;;;;;5041490;28;20250;-86
2021/03/01 07:03:32;;;;;;;18.85;10.18;;;2.20;99.90;;;;;;5043813;28;20245;-85
2021/03/01 07:06:00;;;;;;;19.45;9.80;;;2.40;99.90;;;;;;5043965;28;20307;-86
2021/03/01 07:08:44;;;;;;;17.77;9.70;;;2.30;99.90;;;;;;5044642;28;20210;-84
2021/03/01 07:11:22;;;;;;;19.08;9.90;;;2.40;99.90;;;;;;5043833;28;20207;-86
2021/03/01 07:13:49;;;;;;;16.63;9.63;;;2.40;99.90;;;;;;5047279;28;20221;-85
2021/03/01 07:16:16;;;;;;;16.88;9.95;;;2.70;99.90;;;;;;5050314;28;20227;-85
2021/03/01 07:18:44;;;;;;;20.10;9.13;;;2.50;99.90;;;;;;5048062;28;20219;-86
2021/03/01 07:21:12;;;;;;;18.00;9.40;;;2.70;99.90;;;;;;5049897;28;20199;-83
2021/03/01 07:23:41;;;;;;;16.20;8.15;;;2.90;99.90;;;;;;5053376;28;20215;-84
2021/03/01 07:26:10;;;;;;;17.00;9.40;;;2.90;99.90;;;;;;5069365;28;20191;-83
2021/03/01 07:28:40;;;;;;;15.45;8.82;;;3.00;99.90;;;;;;5066475;28;20206;-87
2021/03/01 07:31:08;;;;;;;16.70;9.52;;;2.90;99.90;;;;;;5051000;28;20286;-83
2021/03/01 07:33:34;;;;;;;15.32;9.10;;;3.00;99.90;;;;;;5049255;28;20203;-83
2021/03/01 07:36:02;;;;;;;15.35;10.25;;;3.00;99.90;;;;;;5046251;28;20719;-84
2021/03/01 07:38:29;;;;;;;15.73;10.00;;;2.80;99.90;;;;;;5039069;28;20230;-84
2021/03/01 07:40:57;;;;;;;19.33;10.93;;;3.00;99.90;;;;;;5039472;28;20294;-85
2021/03/01 07:43:27;;;;;;;24.40;10.25;;;3.10;99.90;;;;;;5039339;28;20203;-84
2021/03/01 07:45:55;;;;;;;18.63;10.00;;;3.30;99.90;;;;;;5038946;28;20195;-83
2021/03/01 07:48:22;;;;;;;21.90;10.68;;;3.30;99.90;;;;;;5041255;28;20574;-85
2021/03/01 07:50:52;;;;;;;16.35;9.77;;;3.30;99.90;;;;;;5044722;28;20214;-83
2021/03/01 07:53:49;;;;;;;18.60;10.25;;;3.40;99.90;;;;;;5041784;28;20274;-83
2021/03/01 07:56:45;;;;;;;17.23;10.80;;;3.60;99.90;;;;;;5041682;28;20234;-86
2021/03/01 07:59:15;;;;;;;21.98;11.48;;;3.70;99.90;;;;;;5042661;28;20223;-86
2021/03/01 08:01:41;;;;;;;22.40;12.00;;;3.90;99.90;;;;;;5045912;28;20207;-84
2021/03/01 08:04:34;;;;;;;17.30;10.10;;;3.80;99.90;;;;;;5046705;28;20293;-84
2021/03/01 08:07:04;;;;;;;24.40;13.52;;;3.90;99.90;;;;;;5043768;28;20598;-83
2021/03/01 08:09:48;;;;;;;16.70;11.02;;;4.10;99.90;;;;;;5040149;28;20203;-85
2021/03/01 08:12:48;;;;;;;17.65;10.68;;;4.10;99.90;;;;;;5038397;28;20750;-83
2021/03/01 08:15:21;;;;;;;18.90;10.90;;;4.30;99.90;;;;;;5045332;28;20222;-82
2021/03/01 08:17:50;;;;;;;23.13;12.27;;;4.20;99.90;;;;;;5042216;28;20227;-80
2021/03/01 08:20:52;;;;;;;25.00;12.35;;;4.40;99.90;;;;;;5042792;28;20199;-80
2021/03/01 08:23:20;;;;;;;28.17;12.75;;;4.50;99.90;;;;;;5049118;28;20202;-78
2021/03/01 08:26:06;;;;;;;26.20;12.70;;;4.50;99.90;;;;;;5041277;28;20297;-81
2021/03/01 08:28:50;;;;;;;19.88;11.90;;;4.60;99.90;;;;;;5051936;28;20241;-80
2021/03/01 08:31:39;;;;;;;19.77;12.02;;;4.70;99.90;;;;;;5036177;28;20211;-79
2021/03/01 08:34:29;;;;;;;22.83;12.48;;;4.70;99.90;;;;;;5036593;28;20274;-81
2021/03/01 08:36:56;;;;;;;26.80;12.65;;;4.70;99.90;;;;;;5037514;28;20289;-80
2021/03/01 08:39:53;;;;;;;23.05;12.25;;;5.10;99.90;;;;;;5037538;28;20206;-81
2021/03/01 08:42:56;;;;;;;21.25;12.90;;;5.10;99.90;;;;;;5038764;28;20207;-81
2021/03/01 08:45:36;;;;;;;32.95;13.85;;;5.40;99.90;;;;;;5039089;28;20195;-84
2021/03/01 08:48:05;;;;;;;24.45;15.45;;;5.50;99.90;;;;;;5039251;28;20318;-84
2021/03/01 08:50:33;;;;;;;14.02;7.95;;;5.70;99.90;;;;;;5038666;28;20260;-85
2021/03/01 08:53:00;;;;;;;17.40;9.80;;;5.70;99.90;;;;;;5038884;28;20290;-87
2021/03/01 08:55:26;;;;;;;25.50;13.80;;;5.60;99.90;;;;;;5038551;28;20743;-86
2021/03/01 08:58:05;;;;;;;21.75;13.82;;;5.60;99.90;;;;;;5039093;28;20227;-84
2021/03/01 09:00:33;;;;;;;27.08;14.05;;;5.80;99.90;;;;;;5045859;28;20199;-81
2021/03/01 09:03:17;;;;;;;21.92;11.60;;;5.90;99.90;;;;;;5054820;28;20262;-82
2021/03/01 09:05:45;;;;;;;19.92;13.40;;;5.90;99.90;;;;;;5044555;28;20780;-82
2021/03/01 09:08:13;;;;;;;23.95;11.05;;;5.90;99.90;;;;;;5044233;28;20227;-83
2021/03/01 09:10:42;;;;;;;22.42;13.25;;;5.70;99.90;;;;;;5047187;28;20199;-81
2021/03/01 09:13:11;;;;;;;23.58;13.85;;;6.00;99.90;;;;;;5041824;28;20635;-82
2021/03/01 09:15:37;;;;;;;22.92;13.45;;;6.00;99.90;;;;;;5045252;28;20298;-81
2021/03/01 09:18:06;;;;;;;20.48;11.75;;;6.00;99.90;;;;;;5053001;28;20258;-80
2021/03/01 09:20:45;;;;;;;26.23;13.05;;;6.20;99.90;;;;;;5051967;28;20210;-81
2021/03/01 09:23:12;;;;;;;15.15;9.00;;;6.40;99.90;;;;;;5053959;28;20199;-84
2021/03/01 09:25:39;;;;;;;25.48;14.68;;;6.40;99.90;;;;;;5048274;28;20203;-79
2021/03/01 09:28:07;;;;;;;18.60;11.32;;;6.40;99.90;;;;;;5045657;28;20257;-79
2021/03/01 09:30:34;;;;;;;26.23;13.10;;;6.70;99.90;;;;;;5037457;28;20222;-79
2021/03/01 09:33:03;;;;;;;24.42;14.27;;;6.60;99.90;;;;;;5038032;28;20583;-81
2021/03/01 09:35:32;;;;;;;23.33;13.07;;;6.90;99.90;;;;;;5036518;28;20219;-78
2021/03/01 09:38:01;;;;;;;19.50;11.70;;;7.30;99.90;;;;;;5036602;28;20227;-82
2021/03/01 09:40:29;;;;;;;25.77;10.77;;;7.10;99.90;;;;;;5038866;28;20199;-81
2021/03/01 09:43:03;;;;;;;14.13;7.45;;;7.00;99.90;;;;;;5042583;28;20199;-81
2021/03/01 09:45:31;;;;;;;16.40;11.35;;;7.10;99.90;;;;;;5037019;28;20188;-81
2021/03/01 09:47:58;;;;;;;23.65;12.15;;;7.50;99.90;;;;;;5026504;28;20235;-85
2021/03/01 09:50:25;;;;;;;18.45;9.65;;;7.30;99.90;;;;;;5036729;28;20203;-84
2021/03/01 09:52:51;;;;;;;15.75;7.25;;;7.50;99.90;;;;;;5039190;28;20211;-85
2021/03/01 09:55:21;;;;;;;23.02;10.05;;;7.50;99.90;;;;;;5038402;28;20258;-85
2021/03/01 09:57:47;;;;;;;13.80;8.70;;;7.40;99.90;;;;;;5038348;28;20224;-85
2021/03/01 10:00:25;;;;;;;11.25;6.15;;;7.50;99.90;;;;;;5026758;28;20219;-83
2021/03/01 10:03:00;;;;;;;16.58;9.63;;;7.80;99.90;;;;;;5041197;28;20214;-85
2021/03/01 10:05:27;;;;;;;19.45;9.88;;;7.70;99.90;;;;;;5042064;28;20190;-85
2021/03/01 10:07:55;;;;;;;24.63;10.77;;;7.90;99.90;;;;;;5047961;28;20242;-85
2021/03/01 10:10:24;;;;;;;15.68;11.20;;;8.10;99.90;;;;;;5040909;28;20318;-85
2021/03/01 10:12:51;;;;;;;17.98;10.45;;;8.30;99.90;;;;;;5038362;28;20203;-78
2021/03/01 10:15:18;;;;;;;18.50;9.73;;;8.30;99.30;;;;;;5041526;28;20235;-79
2021/03/01 10:17:45;;;;;;;13.52;9.52;;;8.50;99.20;;;;;;5049202;28;20250;-84
2021/03/01 10:20:14;;;;;;;20.98;10.52;;;8.50;98.60;;;;;;5048252;28;20223;-84
2021/03/01 10:22:58;;;;;;;14.25;8.00;;;8.70;98.40;;;;;;5061433;28;20238;-86
2021/03/01 10:25:36;;;;;;;11.07;6.87;;;8.40;97.70;;;;;;5046166;28;20241;-82
2021/03/01 10:28:05;;;;;;;15.80;8.45;;;8.80;97.70;;;;;;5038931;28;20473;-82
2021/03/01 10:30:32;;;;;;;17.53;9.40;;;8.60;97.60;;;;;;5037891;28;20222;-83
2021/03/01 10:33:06;;;;;;;10.73;7.30;;;9.00;97.40;;;;;;5035979;28;20458;-83
2021/03/01 10:35:33;;;;;;;14.70;9.53;;;8.90;97.00;;;;;;5036198;28;20225;-85
2021/03/01 10:38:05;;;;;;;19.08;8.98;;;8.70;96.80;;;;;;5037583;28;20977;-86
2021/03/01 10:40:32;;;;;;;14.45;8.77;;;9.10;96.40;;;;;;5035365;28;20643;-86
2021/03/01 10:43:09;;;;;;;16.03;8.40;;;9.20;96.00;;;;;;5034403;28;20210;-87
2021/03/01 10:45:42;;;;;;;14.13;9.60;;;9.30;95.90;;;;;;5035622;28;20453;-87
2021/03/01 10:48:09;;;;;;;17.33;8.50;;;9.20;96.00;;;;;;5035807;28;20481;-87
2021/03/01 10:50:36;;;;;;;14.80;8.57;;;9.40;95.90;;;;;;5035818;28;20480;-87
2021/03/01 10:53:02;;;;;;;16.17;10.10;;;9.50;95.40;;;;;;5036209;28;20466;-87
2021/03/01 10:55:29;;;;;;;15.20;7.70;;;9.70;95.20;;;;;;5034214;28;20845;-86
2021/03/01 10:57:55;;;;;;;13.73;8.70;;;9.70;94.50;;;;;;5035729;28;20537;-87
2021/03/01 11:00:23;;;;;;;13.90;8.43;;;9.70;94.70;;;;;;5036551;28;20530;-86
2021/03/01 11:02:49;;;;;;;14.03;8.40;;;9.90;94.20;;;;;;5035072;28;20489;-87
2021/03/01 11:05:17;;;;;;;18.55;8.75;;;10.00;93.40;;;;;;5036377;28;20446;-86
2021/03/01 11:07:43;;;;;;;11.73;8.70;;;10.10;93.40;;;;;;5039634;28;20230;-85
2021/03/01 11:10:14;;;;;;;12.33;8.53;;;10.10;92.80;;;;;;5040214;28;20469;-88
2021/03/01 11:12:41;;;;;;;14.70;9.50;;;10.30;92.60;;;;;;5037607;28;20488;-86
2021/03/01 11:15:08;;;;;;;13.73;9.30;;;10.30;92.10;;;;;;5037391;28;20544;-87
2021/03/01 11:17:36;;;;;;;18.07;9.00;;;10.40;92.20;;;;;;5037578;28;20490;-87
2021/03/01 11:20:02;;;;;;;12.63;9.00;;;10.60;91.80;;;;;;5037257;28;20462;-81
2021/03/01 11:22:29;;;;;;;12.97;9.20;;;10.60;91.40;;;;;;5038263;28;20484;-82
2021/03/01 11:24:56;;;;;;;13.87;7.00;;;10.70;91.10;;;;;;5038484;28;20837;-83
2021/03/01 11:27:22;;;;;;;13.50;8.00;;;10.80;90.70;;;;;;5038145;28;20826;-82
2021/03/01 11:29:49;;;;;;;11.10;7.93;;;10.90;90.40;;;;;;5037100;28;20454;-82
2021/03/01 11:32:15;;;;;;;13.43;8.47;;;11.00;90.30;;;;;;5039646;28;20477;-82
2021/03/01 11:34:42;;;;;;;12.67;8.20;;;11.10;90.00;;;;;;5040613;28;20906;-80
2021/03/01 11:37:09;;;;;;;11.60;7.13;;;11.20;89.60;;;;;;5041606;28;20481;-82
2021/03/01 11:39:35;;;;;;;12.30;7.63;;;11.20;88.30;;;;;;5041507;28;20473;-84
2021/03/01 11:42:02;;;;;;;11.73;7.23;;;11.20;88.30;;;;;;5042577;28;20477;-82
2021/03/01 11:44:29;;;;;;;10.93;7.40;;;11.20;88.20;;;;;;5039939;28;20453;-84
2021/03/01 11:46:55;;;;;;;11.33;7.10;;;11.30;87.30;;;;;;5039879;28;20474;-83
2021/03/01 11:49:21;;;;;;;12.53;8.43;;;11.40;86.50;;;;;;5038769;28;20538;-82
2021/03/01 11:51:49;;;;;;;13.90;8.10;;;11.60;86.80;;;;;;5040648;28;20461;-82
2021/03/01 11:54:15;;;;;;;11.17;7.27;;;11.80;84.30;;;;;;5041345;28;20477;-82
2021/03/01 11:56:41;;;;;;;11.70;7.80;;;11.80;83.70;;;;;;5038529;28;21050;-82
2021/03/01 11:59:08;;;;;;;10.20;6.20;;;12.10;82.40;;;;;;5038926;28;20457;-85
2021/03/01 12:01:34;;;;;;;15.47;8.10;;;12.00;80.20;;;;;;5043684;28;20474;-87
2021/03/01 12:04:00;;;;;;;10.23;7.03;;;12.20;81.20;;;;;;5063550;23;20551;-85
2021/03/01 12:06:27;;;;;;;13.07;8.03;;;12.20;80.00;;;;;;5009735;28;20450;-83
2021/03/01 12:08:54;;;;;;;14.10;7.43;;;12.40;79.80;;;;;;5002733;28;21039;-84
2021/03/01 12:11:21;;;;;;;17.40;7.37;;;12.40;80.40;;;;;;5006346;28;20460;-82
2021/03/01 12:13:48;;;;;;;10.80;7.30;;;12.40;77.50;;;;;;5000045;28;20479;-83
2021/03/01 12:16:14;;;;;;;14.87;8.33;;;12.60;77.70;;;;;;5001629;28;20488;-86
2021/03/01 12:18:40;;;;;;;11.77;6.00;;;12.60;77.60;;;;;;5000699;28;20497;-81
2021/03/01 12:21:07;;;;;;;6.87;4.80;;;12.70;72.80;;;;;;4997951;28;20459;-83
2021/03/01 12:23:36;;;;;;;9.90;5.00;;;12.80;67.30;;;;;;4998334;28;20476;-84
2021/03/01 12:26:03;;;;;;;8.57;5.43;;;12.90;68.10;;;;;;5019330;28;20985;-84
2021/03/01 12:28:30;;;;;;;11.00;5.57;;;13.00;69.20;;;;;;5008655;28;20472;-87
2021/03/01 12:30:56;;;;;;;8.33;4.93;;;13.10;69.10;;;;;;4999554;28;20855;-85
2021/03/01 12:33:23;;;;;;;7.97;2.47;;;13.10;66.60;;;;;;4997453;28;20510;-84
2021/03/01 12:35:49;;;;;;;5.63;3.70;;;13.20;64.30;;;;;;4997434;28;20542;-84
2021/03/01 12:38:15;;;;;;;5.77;3.30;;;13.40;63.10;;;;;;4998413;28;20861;-85
2021/03/01 12:40:42;;;;;;;6.00;3.83;;;13.30;62.50;;;;;;4999367;28;20958;-84
2021/03/01 12:43:09;;;;;;;7.40;4.27;;;13.30;62.50;;;;;;4998815;28;21001;-86
2021/03/01 12:45:36;;;;;;;4.90;3.10;;;13.20;62.90;;;;;;4999881;28;20463;-83
2021/03/01 12:48:03;;;;;;;6.47;3.67;;;13.30;63.10;;;;;;5000127;28;21118;-84
2021/03/01 12:50:29;;;;;;;6.37;3.77;;;13.40;62.30;;;;;;4998996;28;20479;-83
2021/03/01 12:52:56;;;;;;;6.73;3.47;;;13.40;62.30;;;;;;5001762;28;20442;-84
2021/03/01 12:55:23;;;;;;;6.67;3.83;;;13.40;62.50;;;;;;5006821;28;20491;-83